sensor_id;sensor_type;location;lat;lon;timestamp;temperature;humidity
83964;DHT22;73994;50.868;5.420;2024-01-30T00:02:07;9.10;66.80
83964;DHT22;73994;50.868;5.420;2024-01-30T00:04:32;9.00;66.90
83964;DHT22;73994;50.868;5.420;2024-01-30T00:06:58;9.00;67.00
83964;DHT22;73994;50.868;5.420;2024-01-30T00:09:24;9.00;67.10
83964;DHT22;73994;50.868;5.420;2024-01-30T00:11:49;9.00;67.10
83964;DHT22;73994;50.868;5.420;2024-01-30T00:14:16;9.00;67.10
83964;DHT22;73994;50.868;5.420;2024-01-30T00:16:42;9.00;67.00
83964;DHT22;73994;50.868;5.420;2024-01-30T00:19:08;9.00;67.10
83964;DHT22;73994;50.868;5.420;2024-01-30T00:21:33;9.00;67.10
83964;DHT22;73994;50.868;5.420;2024-01-30T00:23:59;9.00;67.10
83964;DHT22;73994;50.868;5.420;2024-01-30T00:26:25;9.00;67.10
83964;DHT22;73994;50.868;5.420;2024-01-30T00:28:51;9.00;67.00
83964;DHT22;73994;50.868;5.420;2024-01-30T00:31:17;9.00;67.10
83964;DHT22;73994;50.868;5.420;2024-01-30T00:33:42;9.00;67.20
83964;DHT22;73994;50.868;5.420;2024-01-30T00:36:09;9.00;67.20
83964;DHT22;73994;50.868;5.420;2024-01-30T00:38:35;8.90;67.30
83964;DHT22;73994;50.868;5.420;2024-01-30T00:41:01;8.90;67.30
83964;DHT22;73994;50.868;5.420;2024-01-30T00:43:28;9.00;67.10
83964;DHT22;73994;50.868;5.420;2024-01-30T00:45:53;8.90;67.30
83964;DHT22;73994;50.868;5.420;2024-01-30T00:48:20;9.00;67.40
83964;DHT22;73994;50.868;5.420;2024-01-30T00:50:47;9.00;67.20
83964;DHT22;73994;50.868;5.420;2024-01-30T00:53:13;9.00;67.20
83964;DHT22;73994;50.868;5.420;2024-01-30T00:55:38;8.90;67.30
83964;DHT22;73994;50.868;5.420;2024-01-30T00:58:04;9.00;67.30
83964;DHT22;73994;50.868;5.420;2024-01-30T01:00:30;9.00;67.10
83964;DHT22;73994;50.868;5.420;2024-01-30T01:03:00;9.00;67.10
83964;DHT22;73994;50.868;5.420;2024-01-30T01:05:26;8.90;67.20
83964;DHT22;73994;50.868;5.420;2024-01-30T01:07:52;8.90;67.30
83964;DHT22;73994;50.868;5.420;2024-01-30T01:10:19;8.90;67.20
83964;DHT22;73994;50.868;5.420;2024-01-30T01:12:45;8.90;67.30
83964;DHT22;73994;50.868;5.420;2024-01-30T01:15:11;8.90;67.50
83964;DHT22;73994;50.868;5.420;2024-01-30T01:17:37;8.90;67.60
83964;DHT22;73994;50.868;5.420;2024-01-30T01:20:04;8.90;67.60
83964;DHT22;73994;50.868;5.420;2024-01-30T01:22:33;8.80;67.60
83964;DHT22;73994;50.868;5.420;2024-01-30T01:25:00;8.90;67.70
83964;DHT22;73994;50.868;5.420;2024-01-30T01:27:26;8.80;67.60
83964;DHT22;73994;50.868;5.420;2024-01-30T01:29:52;8.80;67.70
83964;DHT22;73994;50.868;5.420;2024-01-30T01:32:19;8.90;67.70
83964;DHT22;73994;50.868;5.420;2024-01-30T01:34:44;8.90;67.60
83964;DHT22;73994;50.868;5.420;2024-01-30T01:37:10;8.90;67.50
83964;DHT22;73994;50.868;5.420;2024-01-30T01:39:36;9.00;67.50
83964;DHT22;73994;50.868;5.420;2024-01-30T01:42:02;8.90;67.60
83964;DHT22;73994;50.868;5.420;2024-01-30T01:44:28;9.00;67.50
83964;DHT22;73994;50.868;5.420;2024-01-30T01:46:54;9.00;67.50
83964;DHT22;73994;50.868;5.420;2024-01-30T01:49:22;9.00;67.30
83964;DHT22;73994;50.868;5.420;2024-01-30T01:51:48;9.00;67.30
83964;DHT22;73994;50.868;5.420;2024-01-30T01:54:15;9.10;67.30
83964;DHT22;73994;50.868;5.420;2024-01-30T01:56:42;9.00;67.40
83964;DHT22;73994;50.868;5.420;2024-01-30T01:59:09;9.00;67.40
83964;DHT22;73994;50.868;5.420;2024-01-30T02:01:38;9.00;67.40
83964;DHT22;73994;50.868;5.420;2024-01-30T02:04:04;9.00;67.40
83964;DHT22;73994;50.868;5.420;2024-01-30T02:06:31;9.10;67.30
83964;DHT22;73994;50.868;5.420;2024-01-30T02:08:57;9.20;67.30
83964;DHT22;73994;50.868;5.420;2024-01-30T02:11:23;9.20;67.20
83964;DHT22;73994;50.868;5.420;2024-01-30T02:13:49;9.10;67.30
83964;DHT22;73994;50.868;5.420;2024-01-30T02:16:15;9.20;67.30
83964;DHT22;73994;50.868;5.420;2024-01-30T02:18:42;9.20;67.30
83964;DHT22;73994;50.868;5.420;2024-01-30T02:21:11;9.20;67.40
83964;DHT22;73994;50.868;5.420;2024-01-30T02:23:36;9.20;67.30
83964;DHT22;73994;50.868;5.420;2024-01-30T02:26:03;9.10;67.50
83964;DHT22;73994;50.868;5.420;2024-01-30T02:28:29;9.20;67.60
83964;DHT22;73994;50.868;5.420;2024-01-30T02:30:54;9.20;67.60
83964;DHT22;73994;50.868;5.420;2024-01-30T02:33:20;9.20;67.60
83964;DHT22;73994;50.868;5.420;2024-01-30T02:35:48;9.20;67.70
83964;DHT22;73994;50.868;5.420;2024-01-30T02:38:15;9.30;67.60
83964;DHT22;73994;50.868;5.420;2024-01-30T02:40:40;9.30;67.60
83964;DHT22;73994;50.868;5.420;2024-01-30T02:43:06;9.30;67.60
83964;DHT22;73994;50.868;5.420;2024-01-30T02:45:32;9.20;67.60
83964;DHT22;73994;50.868;5.420;2024-01-30T02:47:57;9.30;67.70
83964;DHT22;73994;50.868;5.420;2024-01-30T02:50:23;9.30;67.60
83964;DHT22;73994;50.868;5.420;2024-01-30T02:52:49;9.20;67.60
83964;DHT22;73994;50.868;5.420;2024-01-30T02:55:15;9.40;67.70
83964;DHT22;73994;50.868;5.420;2024-01-30T02:57:43;9.40;67.60
83964;DHT22;73994;50.868;5.420;2024-01-30T03:00:09;9.30;67.70
83964;DHT22;73994;50.868;5.420;2024-01-30T03:02:36;9.20;67.90
83964;DHT22;73994;50.868;5.420;2024-01-30T03:05:02;9.20;68.00
83964;DHT22;73994;50.868;5.420;2024-01-30T03:07:29;9.20;68.20
83964;DHT22;73994;50.868;5.420;2024-01-30T03:09:55;9.20;68.20
83964;DHT22;73994;50.868;5.420;2024-01-30T03:12:21;9.20;68.10
83964;DHT22;73994;50.868;5.420;2024-01-30T03:14:47;9.40;68.20
83964;DHT22;73994;50.868;5.420;2024-01-30T03:17:13;9.40;68.20
83964;DHT22;73994;50.868;5.420;2024-01-30T03:19:39;9.40;68.10
83964;DHT22;73994;50.868;5.420;2024-01-30T03:22:04;9.40;68.20
83964;DHT22;73994;50.868;5.420;2024-01-30T03:24:30;9.40;68.10
83964;DHT22;73994;50.868;5.420;2024-01-30T03:26:56;9.40;68.20
83964;DHT22;73994;50.868;5.420;2024-01-30T03:29:22;9.40;68.20
83964;DHT22;73994;50.868;5.420;2024-01-30T03:31:47;9.50;68.20
83964;DHT22;73994;50.868;5.420;2024-01-30T03:34:13;9.50;68.20
83964;DHT22;73994;50.868;5.420;2024-01-30T03:36:39;9.50;68.20
83964;DHT22;73994;50.868;5.420;2024-01-30T03:39:04;9.50;68.20
83964;DHT22;73994;50.868;5.420;2024-01-30T03:41:31;9.50;68.20
83964;DHT22;73994;50.868;5.420;2024-01-30T03:43:57;9.50;68.30
83964;DHT22;73994;50.868;5.420;2024-01-30T03:46:23;9.50;68.30
83964;DHT22;73994;50.868;5.420;2024-01-30T03:48:49;9.50;68.40
83964;DHT22;73994;50.868;5.420;2024-01-30T03:51:15;9.50;68.60
83964;DHT22;73994;50.868;5.420;2024-01-30T03:53:44;9.50;68.70
83964;DHT22;73994;50.868;5.420;2024-01-30T03:56:11;9.40;68.70
83964;DHT22;73994;50.868;5.420;2024-01-30T03:58:39;9.40;68.90
83964;DHT22;73994;50.868;5.420;2024-01-30T04:01:05;9.40;69.00
83964;DHT22;73994;50.868;5.420;2024-01-30T04:03:30;9.20;69.40
83964;DHT22;73994;50.868;5.420;2024-01-30T04:05:56;9.20;69.50
83964;DHT22;73994;50.868;5.420;2024-01-30T04:08:22;9.20;69.70
83964;DHT22;73994;50.868;5.420;2024-01-30T04:10:47;9.20;69.60
83964;DHT22;73994;50.868;5.420;2024-01-30T04:13:14;9.20;69.80
83964;DHT22;73994;50.868;5.420;2024-01-30T04:15:40;9.20;69.70
83964;DHT22;73994;50.868;5.420;2024-01-30T04:18:06;9.20;69.70
83964;DHT22;73994;50.868;5.420;2024-01-30T04:20:31;9.20;69.80
83964;DHT22;73994;50.868;5.420;2024-01-30T04:22:57;9.20;69.70
83964;DHT22;73994;50.868;5.420;2024-01-30T04:25:23;9.20;69.60
83964;DHT22;73994;50.868;5.420;2024-01-30T04:27:48;9.20;69.70
83964;DHT22;73994;50.868;5.420;2024-01-30T04:30:14;9.20;69.60
83964;DHT22;73994;50.868;5.420;2024-01-30T04:32:40;9.20;69.60
83964;DHT22;73994;50.868;5.420;2024-01-30T04:35:06;9.20;69.60
83964;DHT22;73994;50.868;5.420;2024-01-30T04:37:32;9.20;69.60
83964;DHT22;73994;50.868;5.420;2024-01-30T04:39:58;9.20;69.50
83964;DHT22;73994;50.868;5.420;2024-01-30T04:42:23;9.20;69.40
83964;DHT22;73994;50.868;5.420;2024-01-30T04:44:49;9.20;69.60
83964;DHT22;73994;50.868;5.420;2024-01-30T04:47:15;9.20;69.50
83964;DHT22;73994;50.868;5.420;2024-01-30T04:49:41;9.20;69.50
83964;DHT22;73994;50.868;5.420;2024-01-30T04:52:08;9.20;69.60
83964;DHT22;73994;50.868;5.420;2024-01-30T04:54:35;9.20;69.60
83964;DHT22;73994;50.868;5.420;2024-01-30T04:57:01;9.20;69.40
83964;DHT22;73994;50.868;5.420;2024-01-30T04:59:27;9.20;69.50
83964;DHT22;73994;50.868;5.420;2024-01-30T05:01:53;9.30;69.50
83964;DHT22;73994;50.868;5.420;2024-01-30T05:04:19;9.40;69.30
83964;DHT22;73994;50.868;5.420;2024-01-30T05:06:45;9.40;69.20
83964;DHT22;73994;50.868;5.420;2024-01-30T05:09:11;9.40;69.20
83964;DHT22;73994;50.868;5.420;2024-01-30T05:11:38;9.40;69.20
83964;DHT22;73994;50.868;5.420;2024-01-30T05:14:04;9.40;69.20
83964;DHT22;73994;50.868;5.420;2024-01-30T05:16:30;9.40;69.20
83964;DHT22;73994;50.868;5.420;2024-01-30T05:18:56;9.50;69.20
83964;DHT22;73994;50.868;5.420;2024-01-30T05:21:21;9.50;69.20
83964;DHT22;73994;50.868;5.420;2024-01-30T05:23:47;9.40;69.20
83964;DHT22;73994;50.868;5.420;2024-01-30T05:26:13;9.50;69.10
83964;DHT22;73994;50.868;5.420;2024-01-30T05:28:38;9.50;69.20
83964;DHT22;73994;50.868;5.420;2024-01-30T05:31:04;9.50;69.30
83964;DHT22;73994;50.868;5.420;2024-01-30T05:33:30;9.60;69.20
83964;DHT22;73994;50.868;5.420;2024-01-30T05:35:56;9.60;69.20
83964;DHT22;73994;50.868;5.420;2024-01-30T05:38:22;9.50;69.20
83964;DHT22;73994;50.868;5.420;2024-01-30T05:40:47;9.50;69.40
83964;DHT22;73994;50.868;5.420;2024-01-30T05:43:13;9.50;69.60
83964;DHT22;73994;50.868;5.420;2024-01-30T05:45:39;9.50;69.60
83964;DHT22;73994;50.868;5.420;2024-01-30T05:48:05;9.50;69.50
83964;DHT22;73994;50.868;5.420;2024-01-30T05:50:30;9.60;69.50
83964;DHT22;73994;50.868;5.420;2024-01-30T05:52:56;9.60;69.50
83964;DHT22;73994;50.868;5.420;2024-01-30T05:55:22;9.60;69.50
83964;DHT22;73994;50.868;5.420;2024-01-30T05:57:48;9.60;69.40
83964;DHT22;73994;50.868;5.420;2024-01-30T06:00:14;9.70;69.50
83964;DHT22;73994;50.868;5.420;2024-01-30T06:02:40;9.70;69.40
83964;DHT22;73994;50.868;5.420;2024-01-30T06:05:05;9.70;69.40
83964;DHT22;73994;50.868;5.420;2024-01-30T06:07:31;9.70;69.40
83964;DHT22;73994;50.868;5.420;2024-01-30T06:09:57;9.70;69.30
83964;DHT22;73994;50.868;5.420;2024-01-30T06:12:23;9.80;69.20
83964;DHT22;73994;50.868;5.420;2024-01-30T06:14:48;9.80;69.10
83964;DHT22;73994;50.868;5.420;2024-01-30T06:17:14;9.80;69.10
83964;DHT22;73994;50.868;5.420;2024-01-30T06:19:40;9.80;69.20
83964;DHT22;73994;50.868;5.420;2024-01-30T06:22:06;9.80;69.20
83964;DHT22;73994;50.868;5.420;2024-01-30T06:24:32;9.90;69.20
83964;DHT22;73994;50.868;5.420;2024-01-30T06:26:59;9.90;69.20
83964;DHT22;73994;50.868;5.420;2024-01-30T06:29:24;9.90;69.20
83964;DHT22;73994;50.868;5.420;2024-01-30T06:31:52;9.90;69.10
83964;DHT22;73994;50.868;5.420;2024-01-30T06:34:17;10.00;69.10
83964;DHT22;73994;50.868;5.420;2024-01-30T06:36:43;10.00;69.00
83964;DHT22;73994;50.868;5.420;2024-01-30T06:39:09;10.00;69.10
83964;DHT22;73994;50.868;5.420;2024-01-30T06:41:34;10.00;69.20
83964;DHT22;73994;50.868;5.420;2024-01-30T06:44:02;10.00;69.20
83964;DHT22;73994;50.868;5.420;2024-01-30T06:46:29;9.90;69.30
83964;DHT22;73994;50.868;5.420;2024-01-30T06:48:55;9.90;69.30
83964;DHT22;73994;50.868;5.420;2024-01-30T06:51:21;9.90;69.30
83964;DHT22;73994;50.868;5.420;2024-01-30T06:53:46;10.00;69.30
83964;DHT22;73994;50.868;5.420;2024-01-30T06:56:12;9.90;69.30
83964;DHT22;73994;50.868;5.420;2024-01-30T06:58:38;9.90;69.30
83964;DHT22;73994;50.868;5.420;2024-01-30T07:01:04;9.80;69.50
83964;DHT22;73994;50.868;5.420;2024-01-30T07:03:30;9.80;69.40
83964;DHT22;73994;50.868;5.420;2024-01-30T07:05:55;9.90;69.30
83964;DHT22;73994;50.868;5.420;2024-01-30T07:08:21;9.90;69.30
83964;DHT22;73994;50.868;5.420;2024-01-30T07:10:47;10.00;69.40
83964;DHT22;73994;50.868;5.420;2024-01-30T07:13:13;10.00;69.30
83964;DHT22;73994;50.868;5.420;2024-01-30T07:15:42;10.00;69.30
83964;DHT22;73994;50.868;5.420;2024-01-30T07:18:08;10.00;69.40
83964;DHT22;73994;50.868;5.420;2024-01-30T07:20:35;9.90;69.40
83964;DHT22;73994;50.868;5.420;2024-01-30T07:23:01;9.90;69.50
83964;DHT22;73994;50.868;5.420;2024-01-30T07:25:26;9.90;69.50
83964;DHT22;73994;50.868;5.420;2024-01-30T07:27:55;9.90;69.60
83964;DHT22;73994;50.868;5.420;2024-01-30T07:30:21;9.90;69.70
83964;DHT22;73994;50.868;5.420;2024-01-30T07:32:47;9.80;69.80
83964;DHT22;73994;50.868;5.420;2024-01-30T07:35:16;9.70;70.00
83964;DHT22;73994;50.868;5.420;2024-01-30T07:37:41;9.70;70.10
83964;DHT22;73994;50.868;5.420;2024-01-30T07:40:07;9.80;70.00
83964;DHT22;73994;50.868;5.420;2024-01-30T07:42:33;9.80;69.80
83964;DHT22;73994;50.868;5.420;2024-01-30T07:45:00;9.90;69.70
83964;DHT22;73994;50.868;5.420;2024-01-30T07:47:26;9.90;69.80
83964;DHT22;73994;50.868;5.420;2024-01-30T07:49:52;9.90;69.60
83964;DHT22;73994;50.868;5.420;2024-01-30T07:52:18;9.90;69.60
83964;DHT22;73994;50.868;5.420;2024-01-30T07:54:50;10.00;69.50
83964;DHT22;73994;50.868;5.420;2024-01-30T07:57:17;10.00;69.50
83964;DHT22;73994;50.868;5.420;2024-01-30T07:59:46;10.00;69.40
83964;DHT22;73994;50.868;5.420;2024-01-30T08:02:15;10.10;69.30
83964;DHT22;73994;50.868;5.420;2024-01-30T08:04:42;10.10;69.30
83964;DHT22;73994;50.868;5.420;2024-01-30T08:07:08;10.10;69.20
83964;DHT22;73994;50.868;5.420;2024-01-30T08:09:33;10.20;69.10
83964;DHT22;73994;50.868;5.420;2024-01-30T08:11:59;10.20;69.00
83964;DHT22;73994;50.868;5.420;2024-01-30T08:14:25;10.30;69.00
83964;DHT22;73994;50.868;5.420;2024-01-30T08:16:51;10.30;68.90
83964;DHT22;73994;50.868;5.420;2024-01-30T08:19:17;10.40;68.70
83964;DHT22;73994;50.868;5.420;2024-01-30T08:21:43;10.40;68.60
83964;DHT22;73994;50.868;5.420;2024-01-30T08:24:08;10.50;68.40
83964;DHT22;73994;50.868;5.420;2024-01-30T08:26:35;10.60;68.30
83964;DHT22;73994;50.868;5.420;2024-01-30T08:29:01;10.60;68.20
83964;DHT22;73994;50.868;5.420;2024-01-30T08:31:27;10.70;68.00
83964;DHT22;73994;50.868;5.420;2024-01-30T08:33:53;10.80;67.90
83964;DHT22;73994;50.868;5.420;2024-01-30T08:36:19;10.80;67.60
83964;DHT22;73994;50.868;5.420;2024-01-30T08:38:45;10.90;67.60
83964;DHT22;73994;50.868;5.420;2024-01-30T08:41:11;11.00;67.50
83964;DHT22;73994;50.868;5.420;2024-01-30T08:43:37;11.00;67.30
83964;DHT22;73994;50.868;5.420;2024-01-30T08:46:02;11.10;67.30
83964;DHT22;73994;50.868;5.420;2024-01-30T08:48:29;11.10;67.10
83964;DHT22;73994;50.868;5.420;2024-01-30T08:50:54;11.30;67.00
83964;DHT22;73994;50.868;5.420;2024-01-30T08:53:20;11.30;66.80
83964;DHT22;73994;50.868;5.420;2024-01-30T08:55:46;11.30;66.80
83964;DHT22;73994;50.868;5.420;2024-01-30T08:58:12;11.30;66.90
83964;DHT22;73994;50.868;5.420;2024-01-30T09:00:38;11.40;66.80
83964;DHT22;73994;50.868;5.420;2024-01-30T09:03:04;11.40;66.70
83964;DHT22;73994;50.868;5.420;2024-01-30T09:05:29;11.50;66.50
83964;DHT22;73994;50.868;5.420;2024-01-30T09:07:55;11.50;66.60
83964;DHT22;73994;50.868;5.420;2024-01-30T09:10:21;11.50;66.50
83964;DHT22;73994;50.868;5.420;2024-01-30T09:12:47;11.50;66.20
83964;DHT22;73994;50.868;5.420;2024-01-30T09:15:13;11.50;66.40
83964;DHT22;73994;50.868;5.420;2024-01-30T09:17:39;11.50;66.50
83964;DHT22;73994;50.868;5.420;2024-01-30T09:20:05;11.50;66.60
83964;DHT22;73994;50.868;5.420;2024-01-30T09:22:31;11.50;66.70
83964;DHT22;73994;50.868;5.420;2024-01-30T09:24:57;11.50;66.70
83964;DHT22;73994;50.868;5.420;2024-01-30T09:27:23;11.50;66.70
83964;DHT22;73994;50.868;5.420;2024-01-30T09:29:49;11.50;66.60
83964;DHT22;73994;50.868;5.420;2024-01-30T09:32:14;11.50;66.70
83964;DHT22;73994;50.868;5.420;2024-01-30T09:34:40;11.50;66.90
83964;DHT22;73994;50.868;5.420;2024-01-30T09:37:07;11.50;67.10
83964;DHT22;73994;50.868;5.420;2024-01-30T09:39:32;11.40;67.10
83964;DHT22;73994;50.868;5.420;2024-01-30T09:44:29;11.50;66.90
83964;DHT22;73994;50.868;5.420;2024-01-30T09:46:56;11.50;66.80
83964;DHT22;73994;50.868;5.420;2024-01-30T09:49:25;11.50;67.00
83964;DHT22;73994;50.868;5.420;2024-01-30T09:51:52;11.50;67.10
83964;DHT22;73994;50.868;5.420;2024-01-30T09:54:18;11.60;67.00
83964;DHT22;73994;50.868;5.420;2024-01-30T09:56:45;11.70;66.80
83964;DHT22;73994;50.868;5.420;2024-01-30T09:59:10;11.70;66.80
83964;DHT22;73994;50.868;5.420;2024-01-30T10:01:36;11.80;66.70
83964;DHT22;73994;50.868;5.420;2024-01-30T10:04:03;11.70;66.90
83964;DHT22;73994;50.868;5.420;2024-01-30T10:06:29;11.70;66.90
83964;DHT22;73994;50.868;5.420;2024-01-30T10:08:55;11.70;66.90
83964;DHT22;73994;50.868;5.420;2024-01-30T10:11:21;11.80;67.00
83964;DHT22;73994;50.868;5.420;2024-01-30T10:13:47;11.90;66.80
83964;DHT22;73994;50.868;5.420;2024-01-30T10:16:15;12.00;66.60
83964;DHT22;73994;50.868;5.420;2024-01-30T10:18:42;12.00;66.70
83964;DHT22;73994;50.868;5.420;2024-01-30T10:21:09;12.10;66.60
83964;DHT22;73994;50.868;5.420;2024-01-30T10:23:35;12.20;66.70
83964;DHT22;73994;50.868;5.420;2024-01-30T10:26:07;12.20;66.50
83964;DHT22;73994;50.868;5.420;2024-01-30T10:28:33;12.30;66.50
83964;DHT22;73994;50.868;5.420;2024-01-30T10:30:59;12.40;66.50
83964;DHT22;73994;50.868;5.420;2024-01-30T10:33:28;12.50;66.40
83964;DHT22;73994;50.868;5.420;2024-01-30T10:36:01;12.50;66.30
83964;DHT22;73994;50.868;5.420;2024-01-30T10:38:29;12.60;66.20
83964;DHT22;73994;50.868;5.420;2024-01-30T10:41:00;12.60;66.20
83964;DHT22;73994;50.868;5.420;2024-01-30T10:43:32;12.50;66.60
83964;DHT22;73994;50.868;5.420;2024-01-30T10:46:09;12.50;66.80
83964;DHT22;73994;50.868;5.420;2024-01-30T10:48:36;12.60;66.70
83964;DHT22;73994;50.868;5.420;2024-01-30T10:51:09;12.70;66.60
83964;DHT22;73994;50.868;5.420;2024-01-30T10:53:35;12.80;66.50
83964;DHT22;73994;50.868;5.420;2024-01-30T10:56:02;12.70;66.60
83964;DHT22;73994;50.868;5.420;2024-01-30T10:58:29;12.60;66.90
83964;DHT22;73994;50.868;5.420;2024-01-30T11:00:54;12.70;66.90
83964;DHT22;73994;50.868;5.420;2024-01-30T11:03:20;12.70;66.90
83964;DHT22;73994;50.868;5.420;2024-01-30T11:05:50;12.70;66.90
83964;DHT22;73994;50.868;5.420;2024-01-30T11:08:28;12.50;67.10
83964;DHT22;73994;50.868;5.420;2024-01-30T11:10:57;12.50;67.30
83964;DHT22;73994;50.868;5.420;2024-01-30T11:13:27;12.50;67.50
83964;DHT22;73994;50.868;5.420;2024-01-30T11:15:54;12.50;67.70
83964;DHT22;73994;50.868;5.420;2024-01-30T11:18:25;12.50;67.70
83964;DHT22;73994;50.868;5.420;2024-01-30T11:20:52;12.30;67.90
83964;DHT22;73994;50.868;5.420;2024-01-30T11:23:17;12.30;68.00
83964;DHT22;73994;50.868;5.420;2024-01-30T11:25:46;12.20;68.10
83964;DHT22;73994;50.868;5.420;2024-01-30T11:28:14;12.20;68.00
83964;DHT22;73994;50.868;5.420;2024-01-30T11:30:44;12.20;68.10
83964;DHT22;73994;50.868;5.420;2024-01-30T11:33:13;12.10;68.20
83964;DHT22;73994;50.868;5.420;2024-01-30T11:35:43;12.10;68.50
83964;DHT22;73994;50.868;5.420;2024-01-30T11:38:11;12.10;68.50
83964;DHT22;73994;50.868;5.420;2024-01-30T11:40:39;12.00;68.40
83964;DHT22;73994;50.868;5.420;2024-01-30T11:43:06;12.00;68.50
83964;DHT22;73994;50.868;5.420;2024-01-30T11:45:33;11.90;68.60
83964;DHT22;73994;50.868;5.420;2024-01-30T11:47:59;11.90;68.70
83964;DHT22;73994;50.868;5.420;2024-01-30T11:50:32;11.90;68.70
83964;DHT22;73994;50.868;5.420;2024-01-30T11:53:00;11.90;68.70
83964;DHT22;73994;50.868;5.420;2024-01-30T11:55:26;11.90;68.80
83964;DHT22;73994;50.868;5.420;2024-01-30T11:57:55;11.90;68.70
83964;DHT22;73994;50.868;5.420;2024-01-30T12:00:21;11.90;68.80
83964;DHT22;73994;50.868;5.420;2024-01-30T12:02:55;11.90;68.90
83964;DHT22;73994;50.868;5.420;2024-01-30T12:05:24;11.90;69.00
83964;DHT22;73994;50.868;5.420;2024-01-30T12:07:50;11.90;69.10
83964;DHT22;73994;50.868;5.420;2024-01-30T12:10:16;12.00;68.90
83964;DHT22;73994;50.868;5.420;2024-01-30T12:12:54;11.90;69.00
83964;DHT22;73994;50.868;5.420;2024-01-30T12:15:22;11.90;69.10
83964;DHT22;73994;50.868;5.420;2024-01-30T12:17:48;11.90;69.00
83964;DHT22;73994;50.868;5.420;2024-01-30T12:20:15;11.90;69.00
83964;DHT22;73994;50.868;5.420;2024-01-30T12:22:43;11.90;68.90
83964;DHT22;73994;50.868;5.420;2024-01-30T12:25:10;11.90;68.90
83964;DHT22;73994;50.868;5.420;2024-01-30T12:27:37;11.90;69.10
83964;DHT22;73994;50.868;5.420;2024-01-30T12:30:09;12.00;69.00
83964;DHT22;73994;50.868;5.420;2024-01-30T12:32:36;12.00;69.00
83964;DHT22;73994;50.868;5.420;2024-01-30T12:35:02;12.00;68.80
83964;DHT22;73994;50.868;5.420;2024-01-30T12:37:29;12.10;68.80
83964;DHT22;73994;50.868;5.420;2024-01-30T12:39:56;12.10;68.60
83964;DHT22;73994;50.868;5.420;2024-01-30T12:42:22;12.30;68.20
83964;DHT22;73994;50.868;5.420;2024-01-30T12:44:48;12.40;68.10
83964;DHT22;73994;50.868;5.420;2024-01-30T12:47:15;12.30;67.90
83964;DHT22;73994;50.868;5.420;2024-01-30T12:49:44;12.30;68.00
83964;DHT22;73994;50.868;5.420;2024-01-30T12:52:14;12.30;67.80
83964;DHT22;73994;50.868;5.420;2024-01-30T12:54:40;12.30;67.50
83964;DHT22;73994;50.868;5.420;2024-01-30T12:57:06;12.30;67.10
83964;DHT22;73994;50.868;5.420;2024-01-30T12:59:31;12.30;67.30
83964;DHT22;73994;50.868;5.420;2024-01-30T13:01:59;12.30;66.90
83964;DHT22;73994;50.868;5.420;2024-01-30T13:04:25;12.30;67.00
83964;DHT22;73994;50.868;5.420;2024-01-30T13:06:51;12.30;66.70
83964;DHT22;73994;50.868;5.420;2024-01-30T13:09:17;12.30;66.50
83964;DHT22;73994;50.868;5.420;2024-01-30T13:11:43;12.20;66.70
83964;DHT22;73994;50.868;5.420;2024-01-30T13:14:08;12.20;66.40
83964;DHT22;73994;50.868;5.420;2024-01-30T13:16:34;12.20;64.70
83964;DHT22;73994;50.868;5.420;2024-01-30T13:19:00;12.10;65.00
83964;DHT22;73994;50.868;5.420;2024-01-30T13:21:27;11.90;64.80
83964;DHT22;73994;50.868;5.420;2024-01-30T13:23:53;11.90;64.70
83964;DHT22;73994;50.868;5.420;2024-01-30T13:26:20;11.80;64.60
83964;DHT22;73994;50.868;5.420;2024-01-30T13:28:46;11.70;64.10
83964;DHT22;73994;50.868;5.420;2024-01-30T13:31:13;11.80;64.80
83964;DHT22;73994;50.868;5.420;2024-01-30T13:33:39;11.70;63.90
83964;DHT22;73994;50.868;5.420;2024-01-30T13:36:05;11.70;63.70
83964;DHT22;73994;50.868;5.420;2024-01-30T13:38:30;11.70;63.20
83964;DHT22;73994;50.868;5.420;2024-01-30T13:40:56;11.70;63.40
83964;DHT22;73994;50.868;5.420;2024-01-30T13:43:22;11.80;63.40
83964;DHT22;73994;50.868;5.420;2024-01-30T13:45:47;11.90;62.90
83964;DHT22;73994;50.868;5.420;2024-01-30T13:48:13;11.80;63.40
83964;DHT22;73994;50.868;5.420;2024-01-30T13:50:39;11.70;62.80
83964;DHT22;73994;50.868;5.420;2024-01-30T13:53:05;11.80;62.60
83964;DHT22;73994;50.868;5.420;2024-01-30T13:55:30;11.90;62.70
83964;DHT22;73994;50.868;5.420;2024-01-30T13:57:56;11.90;62.40
83964;DHT22;73994;50.868;5.420;2024-01-30T14:00:22;12.00;62.70
83964;DHT22;73994;50.868;5.420;2024-01-30T14:02:48;12.20;61.70
83964;DHT22;73994;50.868;5.420;2024-01-30T14:05:14;12.30;61.30
83964;DHT22;73994;50.868;5.420;2024-01-30T14:07:40;12.30;60.90
83964;DHT22;73994;50.868;5.420;2024-01-30T14:10:09;12.10;61.30
83964;DHT22;73994;50.868;5.420;2024-01-30T14:12:36;11.90;60.80
83964;DHT22;73994;50.868;5.420;2024-01-30T14:15:02;11.90;60.90
83964;DHT22;73994;50.868;5.420;2024-01-30T14:17:28;11.90;60.90
83964;DHT22;73994;50.868;5.420;2024-01-30T14:19:53;12.10;60.10
83964;DHT22;73994;50.868;5.420;2024-01-30T14:22:22;12.20;60.30
83964;DHT22;73994;50.868;5.420;2024-01-30T14:24:47;12.20;59.50
83964;DHT22;73994;50.868;5.420;2024-01-30T14:27:13;12.10;59.40
83964;DHT22;73994;50.868;5.420;2024-01-30T14:29:39;12.50;58.90
83964;DHT22;73994;50.868;5.420;2024-01-30T14:32:05;12.90;57.90
83964;DHT22;73994;50.868;5.420;2024-01-30T14:34:30;12.80;57.50
83964;DHT22;73994;50.868;5.420;2024-01-30T14:36:56;13.30;56.20
83964;DHT22;73994;50.868;5.420;2024-01-30T14:39:22;14.50;54.20
83964;DHT22;73994;50.868;5.420;2024-01-30T14:41:48;19.30;46.10
83964;DHT22;73994;50.868;5.420;2024-01-30T14:44:14;21.90;42.70
83964;DHT22;73994;50.868;5.420;2024-01-30T14:46:40;23.50;40.60
83964;DHT22;73994;50.868;5.420;2024-01-30T14:49:06;25.00;38.90
83964;DHT22;73994;50.868;5.420;2024-01-30T14:51:33;26.00;37.90
83964;DHT22;73994;50.868;5.420;2024-01-30T14:53:59;26.00;37.20
83964;DHT22;73994;50.868;5.420;2024-01-30T14:56:26;25.80;37.30
83964;DHT22;73994;50.868;5.420;2024-01-30T14:58:52;26.20;37.00
83964;DHT22;73994;50.868;5.420;2024-01-30T15:01:18;26.00;37.10
83964;DHT22;73994;50.868;5.420;2024-01-30T15:03:45;26.70;36.70
83964;DHT22;73994;50.868;5.420;2024-01-30T15:06:14;27.40;36.20
83964;DHT22;73994;50.868;5.420;2024-01-30T15:08:40;27.50;35.50
83964;DHT22;73994;50.868;5.420;2024-01-30T15:11:05;26.10;36.40
83964;DHT22;73994;50.868;5.420;2024-01-30T15:13:31;26.10;36.80
83964;DHT22;73994;50.868;5.420;2024-01-30T15:15:58;25.20;37.80
83964;DHT22;73994;50.868;5.420;2024-01-30T15:18:23;22.00;39.40
83964;DHT22;73994;50.868;5.420;2024-01-30T15:20:49;18.90;43.50
83964;DHT22;73994;50.868;5.420;2024-01-30T15:23:15;17.00;46.50
83964;DHT22;73994;50.868;5.420;2024-01-30T15:25:41;16.00;48.00
83964;DHT22;73994;50.868;5.420;2024-01-30T15:28:07;14.80;49.40
83964;DHT22;73994;50.868;5.420;2024-01-30T15:30:35;14.00;51.20
83964;DHT22;73994;50.868;5.420;2024-01-30T15:33:00;13.60;51.60
83964;DHT22;73994;50.868;5.420;2024-01-30T15:35:27;13.20;52.60